Time;durP1;ratioP1;P1;durP2;ratioP2;P2;SDS_P1;SDS_P2;PMS_P1;PMS_P2;Temp;Humidity;BMP_temperature;BMP_pressure;BME280_temperature;BME280_humidity;BME280_pressure;Samples;Min_cycle;Max_cycle;Signal;HPM_P1;HPM_P2
2021/11/26 00:01:09;;;;;;;59.58;21.92;;;;;;;4.54;85.81;100470.28;5055329;28;20040;-72
2021/11/26 00:03:36;;;;;;;62.35;22.50;;;;;;;4.26;87.08;100471.59;5071401;28;20083;-72
2021/11/26 00:06:03;;;;;;;66.03;23.38;;;;;;;4.49;87.29;100468.00;5071368;28;20559;-72
2021/11/26 00:08:30;;;;;;;69.47;24.75;;;;;;;4.57;86.62;100462.16;5053640;28;20558;-73
2021/11/26 00:10:57;;;;;;;72.70;25.73;;;;;;;4.64;86.49;100459.88;5051561;28;20040;-72
2021/11/26 00:13:29;;;;;;;73.80;25.70;;;;;;;4.59;86.23;100450.56;5051364;28;20048;-72
2021/11/26 00:16:03;;;;;;;67.28;24.75;;;;;;;4.56;86.56;100463.09;5052906;28;20123;-72
2021/11/26 00:18:31;;;;;;;79.32;25.77;;;;;;;4.53;86.88;100453.69;5051641;28;20521;-72
2021/11/26 00:21:00;;;;;;;68.25;23.45;;;;;;;4.77;85.61;100448.25;5051461;28;20098;-72
2021/11/26 00:23:26;;;;;;;74.07;25.27;;;;;;;4.85;85.20;100444.19;5068465;28;20051;-72
2021/11/26 00:25:53;;;;;;;76.65;23.83;;;;;;;4.86;85.15;100440.56;5061493;28;20044;-72
2021/11/26 00:28:20;;;;;;;72.30;23.63;;;;;;;4.82;84.95;100437.38;5072541;28;20041;-72
2021/11/26 00:30:48;;;;;;;78.45;25.50;;;;;;;4.80;85.24;100432.25;5077948;28;20028;-72
2021/11/26 00:33:16;;;;;;;70.28;24.30;;;;;;;4.76;85.37;100438.69;5092779;28;20098;-72
2021/11/26 00:35:42;;;;;;;71.18;24.77;;;;;;;4.78;85.65;100435.94;5089279;28;20069;-72
2021/11/26 00:38:09;;;;;;;72.80;26.13;;;;;;;4.72;85.49;100424.13;5052586;28;20056;-72
2021/11/26 00:40:36;;;;;;;75.47;25.25;;;;;;;4.78;85.32;100418.41;5068210;28;20044;-72
2021/11/26 00:43:03;;;;;;;66.30;25.70;;;;;;;4.74;85.39;100408.25;5034932;28;20531;-72
2021/11/26 00:45:29;;;;;;;67.70;24.75;;;;;;;4.89;84.52;100401.72;5051199;28;20052;-73
2021/11/26 00:47:56;;;;;;;65.10;25.02;;;;;;;5.00;83.94;100398.22;5052431;28;20053;-73
2021/11/26 00:50:23;;;;;;;70.57;26.10;;;;;;;4.85;84.40;100396.88;5051166;28;20037;-73
2021/11/26 00:52:50;;;;;;;71.90;25.90;;;;;;;4.71;85.52;100390.09;5051031;28;20045;-73
2021/11/26 00:55:17;;;;;;;71.50;26.02;;;;;;;4.68;86.24;100385.09;5051121;28;20140;-73
2021/11/26 00:57:44;;;;;;;76.22;27.15;;;;;;;4.90;84.60;100385.00;5052346;28;20040;-73
2021/11/26 01:00:14;;;;;;;75.68;27.65;;;;;;;4.94;84.91;100375.09;5052362;28;20048;-72
2021/11/26 01:02:41;;;;;;;82.55;26.67;;;;;;;4.81;85.34;100383.97;5052474;28;20501;-73
2021/11/26 01:05:10;;;;;;;71.75;26.83;;;;;;;4.89;84.65;100378.06;5055595;28;20170;-73
2021/11/26 01:07:37;;;;;;;74.05;27.05;;;;;;;4.80;85.50;100382.31;5069678;28;20049;-73
2021/11/26 01:10:10;;;;;;;79.72;27.70;;;;;;;4.78;85.43;100373.72;5072925;28;20044;-72
2021/11/26 01:12:37;;;;;;;76.88;28.77;;;;;;;4.74;85.29;100366.19;5075911;28;20037;-72
2021/11/26 01:15:07;;;;;;;71.93;27.17;;;;;;;4.73;85.43;100361.91;5074915;28;20094;-72
2021/11/26 01:17:34;;;;;;;82.82;29.58;;;;;;;4.74;85.32;100368.84;5076247;28;20045;-72
2021/11/26 01:20:01;;;;;;;75.35;27.55;;;;;;;4.62;85.33;100357.53;5071545;28;20041;-72
2021/11/26 01:22:28;;;;;;;73.93;27.83;;;;;;;4.56;86.18;100353.59;5054953;28;20482;-72
2021/11/26 01:24:54;;;;;;;79.78;28.00;;;;;;;4.65;85.93;100346.75;5071325;28;20044;-72
2021/11/26 01:27:21;;;;;;;81.68;27.33;;;;;;;4.84;84.20;100350.50;5075419;28;20045;-72
2021/11/26 01:29:48;;;;;;;80.10;28.75;;;;;;;4.52;85.85;100344.31;5108250;28;20036;-72
2021/11/26 01:32:14;;;;;;;74.68;29.40;;;;;;;4.68;85.66;100345.69;5091486;28;20120;-72
2021/11/26 01:34:41;;;;;;;87.25;29.48;;;;;;;4.56;86.11;100332.56;5089389;28;20043;-72
2021/11/26 01:37:08;;;;;;;85.20;29.48;;;;;;;4.61;85.90;100329.59;5074583;28;20424;-72
2021/11/26 01:39:35;;;;;;;88.60;28.52;;;;;;;4.90;84.04;100319.28;5075887;28;20048;-72
2021/11/26 01:42:02;;;;;;;74.10;29.02;;;;;;;4.65;85.01;100317.03;5074420;28;20461;-73
2021/11/26 01:44:29;;;;;;;87.80;29.50;;;;;;;4.78;84.59;100307.16;5057943;28;20452;-73
2021/11/26 01:46:55;;;;;;;75.60;29.65;;;;;;;4.58;85.72;100299.16;5074827;28;20047;-72
2021/11/26 01:49:22;;;;;;;80.88;30.45;;;;;;;4.69;85.11;100297.41;5075198;28;20509;-72
2021/11/26 01:51:49;;;;;;;86.40;28.83;;;;;;;4.66;85.22;100287.16;5074396;28;20519;-72
2021/11/26 01:54:16;;;;;;;71.55;28.42;;;;;;;4.75;85.15;100292.50;5075177;28;20106;-73
2021/11/26 01:56:43;;;;;;;78.15;29.30;;;;;;;4.73;85.19;100285.69;5075343;28;20036;-72
2021/11/26 01:59:10;;;;;;;83.10;30.08;;;;;;;4.85;84.35;100283.84;5075715;28;20044;-72
2021/11/26 02:01:37;;;;;;;85.28;31.05;;;;;;;4.80;84.22;100266.69;5073155;28;20131;-72
2021/11/26 02:04:04;;;;;;;83.18;29.80;;;;;;;4.75;85.05;100278.53;5052688;28;20044;-72
2021/11/26 02:06:31;;;;;;;74.78;29.30;;;;;;;4.74;84.63;100267.16;5057132;28;20051;-73
2021/11/26 02:08:57;;;;;;;70.40;28.80;;;;;;;4.91;83.37;100268.41;5065721;28;20638;-72
2021/11/26 02:11:24;;;;;;;78.40;29.08;;;;;;;4.53;85.60;100251.41;5074094;28;20127;-72
2021/11/26 02:13:51;;;;;;;71.05;26.38;;;;;;;4.68;84.57;100259.81;5074713;28;20041;-73
2021/11/26 02:16:18;;;;;;;70.93;27.35;;;;;;;4.59;84.57;100256.16;5107704;28;20048;-72
2021/11/26 02:18:47;;;;;;;70.15;26.80;;;;;;;4.60;85.04;100254.34;5075068;28;20048;-73
2021/11/26 02:21:17;;;;;;;69.10;26.40;;;;;;;4.42;85.95;100249.66;5073334;28;20555;-73
2021/11/26 02:23:46;;;;;;;71.15;26.17;;;;;;;4.42;86.12;100254.91;5074866;28;20119;-72
2021/11/26 02:26:12;;;;;;;67.38;26.30;;;;;;;4.54;85.90;100241.72;5074779;28;20048;-72
2021/11/26 02:28:41;;;;;;;68.25;26.02;;;;;;;4.76;84.20;100238.13;5074547;28;20040;-72
2021/11/26 02:31:08;;;;;;;66.20;24.58;;;;;;;4.64;84.23;100229.50;5073357;28;20119;-72
2021/11/26 02:33:35;;;;;;;66.00;25.17;;;;;;;4.50;85.05;100228.00;5074683;28;20041;-73
2021/11/26 02:36:02;;;;;;;69.03;25.25;;;;;;;4.41;86.10;100223.53;5054470;28;20047;-72
2021/11/26 02:38:29;;;;;;;63.25;25.13;;;;;;;4.54;85.01;100220.72;5070084;28;20044;-73
2021/11/26 02:40:56;;;;;;;64.75;24.88;;;;;;;4.59;85.23;100219.38;5053564;28;20041;-72
2021/11/26 02:43:23;;;;;;;66.30;25.83;;;;;;;4.47;84.99;100209.06;5052816;28;20458;-72
2021/11/26 02:45:50;;;;;;;58.00;24.23;;;;;;;4.67;84.15;100210.00;5053661;28;20092;-72
2021/11/26 02:48:17;;;;;;;61.13;24.50;;;;;;;4.60;84.66;100196.53;5053084;28;20410;-72
2021/11/26 02:50:45;;;;;;;61.90;23.48;;;;;;;4.65;84.11;100197.00;5052186;28;20043;-72
2021/11/26 02:53:13;;;;;;;56.03;23.33;;;;;;;4.66;84.21;100192.56;5036142;28;20049;-73
2021/11/26 02:55:40;;;;;;;62.88;22.65;;;;;;;4.74;83.36;100190.97;5067281;28;20083;-72
2021/11/26 02:58:08;;;;;;;59.08;24.02;;;;;;;4.54;84.59;100186.56;5072252;28;20135;-72
2021/11/26 03:00:38;;;;;;;64.25;23.48;;;;;;;4.56;84.59;100179.38;5073533;28;20040;-72
2021/11/26 03:03:05;;;;;;;51.60;22.02;;;;;;;4.61;83.32;100179.84;5091100;28;20500;-73
2021/11/26 03:05:32;;;;;;;53.25;22.17;;;;;;;4.57;83.98;100181.06;5082065;28;20044;-72
2021/11/26 03:07:59;;;;;;;56.10;21.52;;;;;;;4.53;84.37;100175.22;5072135;28;20037;-72
2021/11/26 03:10:26;;;;;;;52.72;20.20;;;;;;;4.61;83.04;100170.16;5068938;28;20047;-72
2021/11/26 03:12:56;;;;;;;45.85;19.58;;;;;;;4.53;83.21;100151.59;5072367;28;20494;-72
2021/11/26 03:15:24;;;;;;;43.33;19.30;;;;;;;4.55;83.54;100151.47;5058272;28;20051;-73
2021/11/26 03:17:51;;;;;;;43.65;19.60;;;;;;;4.60;83.08;100154.50;5057397;28;20098;-73
2021/11/26 03:20:18;;;;;;;44.78;18.30;;;;;;;4.68;82.41;100138.94;5085639;28;20500;-72
2021/11/26 03:22:46;;;;;;;43.65;18.17;;;;;;;4.60;82.91;100139.59;5073482;28;20497;-72
2021/11/26 03:25:13;;;;;;;51.55;18.92;;;;;;;4.49;82.95;100139.66;5071588;28;20056;-72
2021/11/26 03:27:41;;;;;;;52.67;18.33;;;;;;;4.45;83.67;100138.25;5073097;28;20075;-73
2021/11/26 03:30:09;;;;;;;41.63;17.83;;;;;;;4.30;84.09;100132.50;5088766;28;20036;-72
2021/11/26 03:32:36;;;;;;;39.63;16.60;;;;;;;4.28;84.13;100129.19;5071172;28;20036;-72
2021/11/26 03:35:05;;;;;;;45.22;18.30;;;;;;;4.33;84.37;100127.00;5069072;28;20105;-73
2021/11/26 03:37:31;;;;;;;41.13;16.67;;;;;;;4.46;83.67;100121.53;5103078;28;20036;-72
2021/11/26 03:39:58;;;;;;;46.80;18.50;;;;;;;4.35;84.12;100111.94;5072787;28;20063;-72
2021/11/26 03:42:25;;;;;;;41.65;17.98;;;;;;;4.68;82.44;100115.28;5104875;28;20041;-72
2021/11/26 03:44:51;;;;;;;43.75;17.52;;;;;;;4.47;83.35;100111.88;5072181;28;20052;-72
2021/11/26 03:47:18;;;;;;;38.45;17.30;;;;;;;4.49;83.01;100102.88;5072172;28;20052;-72
2021/11/26 03:49:45;;;;;;;39.83;17.48;;;;;;;4.41;84.01;100100.09;5070971;28;20045;-72
2021/11/26 03:52:12;;;;;;;42.15;18.38;;;;;;;4.48;83.96;100090.72;5054083;28;20046;-73
2021/11/26 03:54:40;;;;;;;45.13;18.05;;;;;;;4.36;83.96;100082.06;5071826;28;20040;-72
2021/11/26 03:57:08;;;;;;;42.88;19.55;;;;;;;4.54;83.24;100084.94;5072522;28;20056;-72
2021/11/26 03:59:37;;;;;;;45.30;17.55;;;;;;;4.43;83.69;100077.16;5051995;28;20067;-72
2021/11/26 04:02:04;;;;;;;53.88;20.63;;;;;;;4.32;84.44;100080.69;5053392;28;20048;-72
2021/11/26 04:04:31;;;;;;;47.50;19.38;;;;;;;4.42;83.59;100073.69;5104408;27;20582;-72
2021/11/26 04:06:58;;;;;;;48.60;20.67;;;;;;;4.30;84.30;100073.91;5080659;28;20584;-72
2021/11/26 04:09:25;;;;;;;54.08;20.38;;;;;;;4.32;84.30;100070.19;5052927;28;20037;-72
2021/11/26 04:11:51;;;;;;;54.80;21.05;;;;;;;4.34;83.98;100057.75;5051618;28;20037;-72
2021/11/26 04:14:25;;;;;;;53.70;21.95;;;;;;;4.27;84.44;100055.78;5052929;28;20047;-72
2021/11/26 04:16:52;;;;;;;59.08;21.80;;;;;;;4.36;84.38;100052.38;5052706;28;20049;-73
2021/11/26 04:19:19;;;;;;;51.80;21.85;;;;;;;4.30;84.92;100052.91;5057087;28;20128;-72
2021/11/26 04:21:46;;;;;;;57.03;21.73;;;;;;;4.35;84.55;100045.47;5059874;28;20502;-72
2021/11/26 04:24:12;;;;;;;54.22;23.67;;;;;;;4.41;84.76;100034.44;5072634;28;20052;-72
2021/11/26 04:26:39;;;;;;;55.58;23.30;;;;;;;4.31;84.40;100029.16;5071655;28;20110;-73
2021/11/26 04:29:06;;;;;;;57.42;22.73;;;;;;;4.28;85.60;100021.53;5105368;28;20094;-72
2021/11/26 04:31:32;;;;;;;48.90;21.20;;;;;;;4.43;84.37;100019.38;5104971;28;20048;-72
2021/11/26 04:33:59;;;;;;;52.97;22.50;;;;;;;4.36;84.98;100007.72;5103396;28;20041;-73
2021/11/26 04:36:26;;;;;;;55.10;22.00;;;;;;;4.36;85.39;100005.91;5071288;28;20048;-72
2021/11/26 04:38:53;;;;;;;53.63;22.63;;;;;;;4.42;85.18;100005.41;5071353;28;20401;-72
2021/11/26 04:41:20;;;;;;;53.63;23.33;;;;;;;4.31;86.55;100004.66;5072793;28;20444;-72
2021/11/26 04:43:46;;;;;;;65.00;22.33;;;;;;;4.43;85.24;99998.34;5072401;28;20045;-72
2021/11/26 04:46:13;;;;;;;51.80;22.17;;;;;;;4.41;86.61;99989.78;5070645;28;20049;-72
2021/11/26 04:48:40;;;;;;;53.22;21.55;;;;;;;4.42;85.57;99986.19;5070923;28;20063;-72
2021/11/26 04:51:06;;;;;;;52.25;21.38;;;;;;;4.54;85.20;99979.03;5065139;28;20090;-73
2021/11/26 04:53:33;;;;;;;57.38;21.85;;;;;;;4.54;85.75;99973.78;5068101;28;20033;-73
2021/11/26 04:56:00;;;;;;;56.80;23.30;;;;;;;4.40;86.83;99969.72;5068302;28;20095;-73
2021/11/26 04:58:32;;;;;;;50.05;22.60;;;;;;;4.69;85.04;99968.97;5061024;28;20075;-72
2021/11/26 05:00:59;;;;;;;51.53;20.60;;;;;;;4.47;86.00;99960.34;5072230;28;20091;-72
2021/11/26 05:03:26;;;;;;;51.78;22.52;;;;;;;4.42;86.39;99963.41;5071180;28;20037;-73
2021/11/26 05:05:52;;;;;;;45.55;21.80;;;;;;;4.45;86.34;99957.03;5071082;28;20115;-73
2021/11/26 05:08:20;;;;;;;51.42;22.67;;;;;;;4.48;86.04;99945.44;5069061;28;20427;-73
2021/11/26 05:10:52;;;;;;;52.75;21.15;;;;;;;4.34;87.13;99944.84;5071594;28;20048;-73
2021/11/26 05:13:21;;;;;;;49.13;21.33;;;;;;;4.47;86.90;99938.50;5071900;28;20047;-73
2021/11/26 05:15:48;;;;;;;49.80;21.55;;;;;;;4.49;86.17;99924.28;5072110;28;20045;-73
2021/11/26 05:18:15;;;;;;;49.95;22.20;;;;;;;4.51;86.50;99926.75;5071141;28;20516;-73
2021/11/26 05:20:42;;;;;;;51.83;20.98;;;;;;;4.57;86.41;99924.44;5072010;28;20040;-73
2021/11/26 05:23:10;;;;;;;41.75;20.67;;;;;;;4.39;86.42;99919.00;5072284;28;20051;-73
2021/11/26 05:25:36;;;;;;;46.25;20.20;;;;;;;4.59;86.05;99917.25;5069757;28;20051;-73
2021/11/26 05:28:03;;;;;;;45.45;19.88;;;;;;;4.41;86.00;99911.81;5071829;28;20049;-73
2021/11/26 05:30:30;;;;;;;45.42;22.17;;;;;;;4.52;86.90;99915.31;5104143;28;20044;-73
2021/11/26 05:32:57;;;;;;;43.70;20.00;;;;;;;4.55;86.65;99908.00;5072089;28;20047;-73
2021/11/26 05:35:24;;;;;;;39.53;19.98;;;;;;;4.48;86.86;99903.41;5070215;28;20037;-72
2021/11/26 05:37:50;;;;;;;44.45;21.40;;;;;;;4.58;86.08;99905.09;5070675;28;20036;-73
2021/11/26 05:40:17;;;;;;;40.47;19.70;;;;;;;4.50;87.21;99897.06;5072022;28;20037;-73
2021/11/26 05:42:44;;;;;;;47.58;20.33;;;;;;;4.47;87.86;99905.19;5070524;28;20032;-73
2021/11/26 05:45:12;;;;;;;43.13;21.00;;;;;;;4.34;87.88;99900.19;5071665;28;20115;-73
2021/11/26 05:47:40;;;;;;;40.13;20.60;;;;;;;4.39;87.94;99898.00;5071736;28;20060;-73
2021/11/26 05:50:10;;;;;;;41.00;19.25;;;;;;;4.50;87.15;99901.47;5070637;28;20041;-73
2021/11/26 05:52:37;;;;;;;41.83;19.75;;;;;;;4.40;87.60;99899.66;5071930;28;20036;-73
2021/11/26 05:55:07;;;;;;;38.83;19.60;;;;;;;4.53;87.89;99891.53;5071616;28;20063;-73
2021/11/26 05:57:34;;;;;;;41.03;19.92;;;;;;;4.48;87.99;99882.41;5075413;28;20090;-73
2021/11/26 06:00:04;;;;;;;43.88;18.00;;;;;;;4.62;86.92;99884.66;5074172;28;20045;-73
2021/11/26 06:02:32;;;;;;;40.75;20.05;;;;;;;4.39;87.93;99878.78;5055306;28;20145;-73
2021/11/26 06:04:59;;;;;;;40.30;19.02;;;;;;;4.47;87.79;99883.38;5053965;28;20095;-73
2021/11/26 06:07:25;;;;;;;40.63;20.27;;;;;;;4.37;88.08;99880.72;5051911;28;20040;-73
2021/11/26 06:09:52;;;;;;;36.55;18.63;;;;;;;4.49;87.96;99877.00;5070790;28;20059;-73
2021/11/26 06:12:19;;;;;;;42.20;19.63;;;;;;;4.23;88.43;99869.63;5055157;28;20098;-73
2021/11/26 06:14:46;;;;;;;38.58;20.20;;;;;;;4.41;88.08;99863.72;5062251;28;20040;-73
2021/11/26 06:17:13;;;;;;;44.20;19.25;;;;;;;4.50;88.09;99864.72;5095205;28;20044;-73
2021/11/26 06:19:39;;;;;;;37.72;18.55;;;;;;;4.56;87.46;99849.22;5081017;28;20040;-73
2021/11/26 06:22:06;;;;;;;47.08;19.38;;;;;;;4.53;87.45;99857.38;5074762;28;20040;-73
2021/11/26 06:24:33;;;;;;;43.92;20.42;;;;;;;4.23;88.56;99856.50;5073794;28;20064;-73
2021/11/26 06:27:00;;;;;;;39.25;19.23;;;;;;;4.38;88.12;99864.84;5073829;28;20059;-73
2021/11/26 06:29:26;;;;;;;43.03;19.70;;;;;;;4.44;87.63;99852.97;5073389;28;20040;-73
2021/11/26 06:31:53;;;;;;;39.85;18.67;;;;;;;4.36;87.87;99844.91;5071111;28;20047;-73
2021/11/26 06:34:20;;;;;;;35.40;17.50;;;;;;;4.42;88.23;99841.72;5073292;28;20040;-74
2021/11/26 06:36:47;;;;;;;35.33;17.45;;;;;;;4.39;88.32;99834.97;5055073;28;20047;-73
2021/11/26 06:39:14;;;;;;;37.97;17.85;;;;;;;4.39;88.53;99837.59;5056603;28;20049;-73
2021/11/26 06:41:40;;;;;;;37.90;18.95;;;;;;;4.43;88.13;99823.22;5074641;28;20037;-73
2021/11/26 06:44:07;;;;;;;33.20;16.67;;;;;;;4.42;87.81;99826.81;5074274;28;20044;-73
2021/11/26 06:46:34;;;;;;;31.73;16.33;;;;;;;4.64;87.47;99819.66;5074174;28;20041;-73
2021/11/26 06:49:01;;;;;;;32.53;16.58;;;;;;;4.58;86.86;99825.44;5055635;28;20044;-73
2021/11/26 06:51:27;;;;;;;30.92;15.70;;;;;;;4.45;87.58;99819.63;5073173;28;20408;-73
2021/11/26 06:53:57;;;;;;;35.08;16.85;;;;;;;4.49;87.34;99813.13;5073465;28;20472;-73
2021/11/26 06:56:24;;;;;;;32.28;15.13;;;;;;;4.48;87.56;99808.88;5062693;28;20067;-73
2021/11/26 06:58:53;;;;;;;28.08;15.32;;;;;;;4.51;87.17;99798.91;5072894;28;20044;-73
2021/11/26 07:01:20;;;;;;;39.10;15.50;;;;;;;4.50;88.03;99797.25;5073037;28;20071;-73
2021/11/26 07:03:47;;;;;;;29.55;15.07;;;;;;;4.48;87.73;99798.34;5073479;28;20147;-73
2021/11/26 07:06:16;;;;;;;31.20;15.60;;;;;;;4.43;87.97;99804.00;5071229;28;20505;-72
2021/11/26 07:08:43;;;;;;;27.92;15.02;;;;;;;4.43;88.48;99791.69;5071381;28;20044;-73
2021/11/26 07:11:10;;;;;;;33.70;15.30;;;;;;;4.61;86.99;99791.84;5071919;28;20037;-73
2021/11/26 07:13:36;;;;;;;29.00;15.43;;;;;;;4.58;87.89;99791.28;5089471;28;20515;-73
2021/11/26 07:16:04;;;;;;;30.25;15.45;;;;;;;4.60;88.23;99787.56;5073523;28;20040;-73
2021/11/26 07:18:31;;;;;;;32.78;15.68;;;;;;;4.64;87.18;99785.50;5073758;28;20501;-73
2021/11/26 07:20:57;;;;;;;28.45;14.73;;;;;;;4.64;87.14;99788.13;5072296;28;20127;-73
2021/11/26 07:23:24;;;;;;;30.58;16.02;;;;;;;4.44;87.73;99779.44;5073867;28;20048;-73
2021/11/26 07:25:51;;;;;;;26.23;13.50;;;;;;;4.60;86.72;99769.19;5073611;28;20040;-72
2021/11/26 07:28:19;;;;;;;34.28;14.48;;;;;;;4.61;87.55;99765.56;5073711;28;20409;-73
2021/11/26 07:30:46;;;;;;;31.60;14.77;;;;;;;4.45;87.40;99762.69;5073082;28;20436;-73
2021/11/26 07:33:13;;;;;;;28.45;14.65;;;;;;;4.49;88.24;99766.69;5070223;28;20041;-72
2021/11/26 07:35:40;;;;;;;26.25;14.02;;;;;;;4.55;88.25;99763.53;5072083;28;20407;-73
2021/11/26 07:38:07;;;;;;;27.10;14.18;;;;;;;4.64;86.69;99766.25;5056232;28;20045;-73
2021/11/26 07:40:34;;;;;;;26.83;13.07;;;;;;;4.66;87.08;99766.94;5068886;28;20258;-73
2021/11/26 07:43:01;;;;;;;28.13;13.55;;;;;;;4.51;87.42;99764.78;5051962;28;20037;-73
2021/11/26 07:45:28;;;;;;;24.65;12.38;;;;;;;4.58;87.29;99758.00;5051890;28;20052;-73
2021/11/26 07:47:55;;;;;;;26.92;12.05;;;;;;;4.49;87.56;99758.81;5053115;28;20052;-73
2021/11/26 07:50:21;;;;;;;26.20;12.38;;;;;;;4.48;88.35;99751.91;5053131;28;20514;-73
2021/11/26 07:52:48;;;;;;;26.02;11.82;;;;;;;4.66;86.97;99751.19;5049669;28;20048;-73
2021/11/26 07:55:15;;;;;;;23.23;11.57;;;;;;;4.67;87.28;99748.41;5078942;28;20051;-73
2021/11/26 07:57:44;;;;;;;29.90;13.15;;;;;;;4.68;87.48;99742.22;5052815;28;20055;-73
2021/11/26 08:00:12;;;;;;;30.35;12.02;;;;;;;4.69;87.17;99738.59;5051337;28;20053;-73
2021/11/26 08:02:39;;;;;;;26.63;13.18;;;;;;;4.71;87.21;99730.59;5052588;28;20037;-73
2021/11/26 08:05:08;;;;;;;24.25;12.70;;;;;;;4.74;85.91;99723.25;5069700;28;20048;-73
2021/11/26 08:07:36;;;;;;;29.75;13.73;;;;;;;4.71;87.26;99728.81;5053680;28;20106;-73
2021/11/26 08:10:08;;;;;;;29.20;13.15;;;;;;;4.68;87.22;99717.75;5072750;28;20054;-73
2021/11/26 08:12:37;;;;;;;29.23;12.93;;;;;;;4.70;86.79;99714.00;5072428;28;20486;-73
2021/11/26 08:15:07;;;;;;;34.50;13.57;;;;;;;4.72;86.53;99712.06;5051275;28;20497;-73
2021/11/26 08:17:34;;;;;;;31.23;13.60;;;;;;;4.70;86.94;99702.66;5071611;28;20131;-73
2021/11/26 08:20:04;;;;;;;36.80;14.23;;;;;;;4.72;86.79;99703.34;5069150;28;20080;-73
2021/11/26 08:22:43;;;;;;;31.33;14.73;;;;;;;4.83;86.01;99700.56;5054253;28;20086;-73
2021/11/26 08:25:10;;;;;;;39.08;14.88;;;;;;;4.86;85.30;99688.91;5063559;28;20041;-73
2021/11/26 08:27:37;;;;;;;36.97;14.43;;;;;;;4.76;85.79;99687.16;5064432;28;20049;-73
2021/11/26 08:30:05;;;;;;;45.70;15.30;;;;;;;4.90;85.34;99682.44;5067744;28;20036;-73
2021/11/26 08:32:33;;;;;;;40.17;14.38;;;;;;;4.97;84.78;99678.25;5061704;28;20037;-73
2021/11/26 08:34:59;;;;;;;30.73;13.75;;;;;;;4.88;84.78;99669.41;5066024;28;20107;-73
2021/11/26 08:37:27;;;;;;;36.40;14.38;;;;;;;4.91;85.27;99677.03;5053694;28;20106;-73
2021/11/26 08:39:54;;;;;;;32.13;14.50;;;;;;;4.75;85.83;99676.81;5056236;28;20094;-73
2021/11/26 08:42:21;;;;;;;35.85;14.30;;;;;;;4.73;85.35;99671.69;5058261;28;20037;-73
2021/11/26 08:44:47;;;;;;;36.65;15.30;;;;;;;4.73;86.11;99670.84;5052258;28;20059;-73
2021/11/26 08:47:14;;;;;;;36.38;14.38;;;;;;;4.78;86.26;99666.84;5068626;28;20055;-73
2021/11/26 08:49:41;;;;;;;36.33;14.45;;;;;;;4.88;85.33;99651.03;5071560;28;20098;-73
2021/11/26 08:52:09;;;;;;;34.83;14.45;;;;;;;5.00;84.88;99654.28;5068355;28;20131;-73
2021/11/26 08:54:37;;;;;;;30.73;13.50;;;;;;;5.07;84.25;99647.47;5080825;28;20051;-74
2021/11/26 08:57:04;;;;;;;29.88;12.35;;;;;;;5.09;82.27;99649.97;5066856;28;20055;-73
2021/11/26 08:59:31;;;;;;;31.65;11.32;;;;;;;4.85;83.48;99646.06;5070338;28;20824;-73
2021/11/26 09:01:58;;;;;;;38.25;12.57;;;;;;;4.84;83.81;99647.03;5053932;28;20032;-73
2021/11/26 09:04:26;;;;;;;37.67;12.70;;;;;;;4.71;84.08;99638.63;5069540;28;20064;-73
2021/11/26 09:06:55;;;;;;;35.60;13.52;;;;;;;4.69;83.76;99633.50;5067882;28;20052;-73
2021/11/26 09:09:23;;;;;;;30.13;11.57;;;;;;;4.67;83.90;99627.56;5070384;28;20040;-73
2021/11/26 09:11:51;;;;;;;37.13;13.27;;;;;;;4.71;84.09;99630.75;5070530;28;20037;-73
2021/11/26 09:14:18;;;;;;;29.92;12.40;;;;;;;4.74;84.22;99626.03;5060008;28;20045;-73
2021/11/26 09:16:45;;;;;;;37.53;11.60;;;;;;;4.69;83.44;99622.19;5069754;28;20048;-73
2021/11/26 09:19:12;;;;;;;35.45;12.15;;;;;;;4.84;83.11;99630.41;5053280;28;20117;-73
2021/11/26 09:21:39;;;;;;;37.05;12.57;;;;;;;4.76;85.17;99623.25;5067413;28;20064;-71
2021/11/26 09:24:06;;;;;;;36.05;12.13;;;;;;;4.73;84.39;99626.16;5068911;28;20047;-72
2021/11/26 09:26:33;;;;;;;28.63;11.13;;;;;;;4.85;82.77;99619.78;5058312;28;20055;-72
2021/11/26 09:29:00;;;;;;;36.55;11.75;;;;;;;4.71;83.22;99613.19;5068139;28;20093;-72
2021/11/26 09:31:27;;;;;;;40.45;12.30;;;;;;;4.68;83.15;99620.53;5072597;28;20052;-72
2021/11/26 09:33:55;;;;;;;29.90;11.57;;;;;;;4.71;82.64;99613.19;5073298;28;20070;-72
2021/11/26 09:36:23;;;;;;;34.63;12.40;;;;;;;4.50;85.09;99605.50;5044807;28;20088;-72
2021/11/26 09:38:51;;;;;;;30.63;11.73;;;;;;;4.51;82.75;99604.56;5106319;27;20036;-72
2021/11/26 09:41:18;;;;;;;31.55;11.85;;;;;;;4.58;83.30;99600.38;5080744;28;20085;-71
2021/11/26 09:43:59;;;;;;;34.67;11.63;;;;;;;4.61;82.94;99602.72;5065539;28;20037;-71
2021/11/26 09:46:29;;;;;;;29.42;11.55;;;;;;;4.79;81.23;99594.09;5068709;28;20064;-71
2021/11/26 09:48:56;;;;;;;37.45;10.70;;;;;;;4.79;81.67;99587.03;5078241;28;20083;-72
2021/11/26 09:51:23;;;;;;;32.28;12.25;;;;;;;4.69;83.40;99585.41;5065286;28;20485;-72
2021/11/26 09:53:50;;;;;;;33.58;11.60;;;;;;;4.80;81.35;99587.84;5078298;28;20083;-71
2021/11/26 09:56:17;;;;;;;32.15;10.68;;;;;;;4.91;81.38;99584.19;5050680;28;20045;-71
2021/11/26 09:58:43;;;;;;;35.13;10.98;;;;;;;4.81;80.49;99577.19;5068498;28;20114;-70
2021/11/26 10:01:10;;;;;;;30.60;11.43;;;;;;;4.78;81.45;99568.78;5094176;28;20036;-72
2021/11/26 10:03:43;;;;;;;33.55;11.30;;;;;;;4.79;80.49;99559.94;5074150;28;20054;-71
2021/11/26 10:06:38;;;;;;;34.50;12.35;;;;;;;4.74;82.20;99556.91;5069634;28;20064;-70
2021/11/26 10:09:10;;;;;;;38.10;11.15;;;;;;;4.77;80.51;99562.69;5070576;28;20036;-73
2021/11/26 10:11:43;;;;;;;;;;;;;;;4.84;78.41;99551.59;5072165;28;20059;-70
2021/11/26 10:14:21;;;;;;;42.45;10.93;;;;;;;4.78;79.08;99543.34;5073692;28;20074;-70
2021/11/26 10:16:55;;;;;;;40.53;10.82;;;;;;;4.78;77.15;99532.84;5088454;28;20041;-70
2021/11/26 10:19:41;;;;;;;40.95;10.32;;;;;;;4.86;75.10;99528.63;5070832;28;20123;-72
2021/11/26 10:22:16;;;;;;;38.67;11.07;;;;;;;4.80;75.79;99524.78;5057342;28;20040;-72
2021/11/26 10:24:54;;;;;;;28.30;10.05;;;;;;;4.63;74.37;99501.94;5061121;28;20100;-71
2021/11/26 10:27:34;;;;;;;32.53;10.38;;;;;;;4.77;75.10;99512.78;5066319;28;20033;-72
2021/11/26 10:30:21;;;;;;;30.10;9.75;;;;;;;4.72;73.45;99503.69;5071948;28;20113;-72
2021/11/26 10:32:52;;;;;;;28.77;9.70;;;;;;;4.76;73.69;99489.25;5085555;28;20112;-71
2021/11/26 10:35:19;;;;;;;31.00;10.10;;;;;;;4.83;72.38;99487.69;5063568;28;20097;-72
2021/11/26 10:38:06;;;;;;;30.75;10.18;;;;;;;4.93;72.40;99485.00;5073011;28;20094;-72
2021/11/26 10:40:35;;;;;;;31.67;10.05;;;;;;;4.78;74.42;99475.03;5074073;28;20033;-72
2021/11/26 10:43:05;;;;;;;29.92;9.13;;;;;;;4.71;71.39;99465.22;5053154;28;20032;-72
2021/11/26 10:50:59;;;;;;;25.33;9.05;;;;;;;4.85;70.03;99441.06;5078774;27;20454;-71
2021/11/26 10:59:07;;;;;;;23.52;8.13;;;;;;;4.94;69.09;99419.16;5072949;28;20136;-71
2021/11/26 11:01:49;;;;;;;23.40;8.18;;;;;;;5.04;68.73;99403.34;5072603;28;20051;-71
2021/11/26 11:04:21;;;;;;;26.17;8.10;;;;;;;5.08;69.40;99401.22;5067117;28;20068;-72
2021/11/26 11:07:01;;;;;;;36.88;9.52;;;;;;;5.12;69.38;99386.78;5064433;28;20136;-71
2021/11/26 11:09:47;;;;;;;29.27;8.98;;;;;;;5.19;68.20;99379.94;5075409;28;20079;-71
2021/11/26 11:12:15;;;;;;;22.38;7.82;;;;;;;5.15;64.89;99368.91;5070368;28;20048;-71
2021/11/26 11:14:55;;;;;;;21.85;8.10;;;;;;;5.24;67.28;99366.34;5069848;28;20048;-71
2021/11/26 11:17:24;;;;;;;25.30;8.15;;;;;;;5.09;66.24;99358.19;5070483;28;20060;-71
2021/11/26 11:19:55;;;;;;;22.30;8.13;;;;;;;5.05;66.81;99354.22;5073477;28;20036;-71
2021/11/26 11:22:22;;;;;;;31.02;7.75;;;;;;;5.06;65.64;99351.44;5074981;28;20048;-71
2021/11/26 11:24:48;;;;;;;24.92;7.32;;;;;;;5.02;64.56;99349.25;5052111;28;20493;-73
2021/11/26 11:27:15;;;;;;;33.25;7.40;;;;;;;4.99;66.48;99347.75;5070121;28;20064;-71
2021/11/26 11:29:42;;;;;;;23.83;7.45;;;;;;;4.94;66.28;99334.25;5071406;28;20037;-70
2021/11/26 11:32:10;;;;;;;22.98;7.25;;;;;;;5.15;67.06;99320.78;5074475;28;20041;-73
2021/11/26 11:34:38;;;;;;;22.38;6.50;;;;;;;5.26;62.54;99314.44;5037562;28;20106;-73
2021/11/26 11:37:08;;;;;;;20.95;6.30;;;;;;;5.36;62.73;99309.88;5068403;28;20104;-71